Terminal Aerodrome Forecast
Issued by NWS

Home | Current Version | Previous Version | Text Only | Print | Product List | Glossary On
Versions: 1 2 3 4 5 6 7 8 9 10 11 12 13 14 15 16 17 18 19 20
000
FTUS44 KHGX 210520
TAFUTS
TAF
KUTS 210520Z 2106/2206 VRB04KT P6SM FEW250
     FM210900 15004KT 6SM BR BKN015
     FM211500 17008KT P6SM BKN025
     FM211900 17008KT P6SM VCTS BKN035CB
     FM220200 13004KT P6SM BKN250=

USA.gov is the U.S. government's official web portal to all federal, state and local government web resources and services.